createdAt,value
2022-09-28T00:00:42.386Z,9.678037
2022-09-28T00:01:42.475Z,9.678151
2022-09-28T00:02:42.415Z,9.677984
2022-09-28T00:03:42.375Z,9.678123
2022-09-28T00:04:42.356Z,9.678111
2022-09-28T00:05:42.349Z,9.678082
2022-09-28T00:06:42.360Z,9.678121
2022-09-28T00:07:42.336Z,9.678099
2022-09-28T00:08:42.329Z,9.678083
2022-09-28T00:09:42.337Z,9.678096
2022-09-28T00:10:42.309Z,9.678106
2022-09-28T00:11:42.300Z,9.678113
2022-09-28T00:12:42.304Z,9.678117
2022-09-28T00:13:42.288Z,9.678165
2022-09-28T00:14:42.304Z,9.678122
2022-09-28T00:15:42.262Z,9.678111
2022-09-28T00:16:42.294Z,9.678090
2022-09-28T00:17:42.243Z,9.678104
2022-09-28T00:18:42.233Z,9.678109
2022-09-28T00:19:42.236Z,9.678128
2022-09-28T00:20:42.244Z,9.678119
2022-09-28T00:21:42.251Z,9.678148
2022-09-28T00:22:42.205Z,9.678154
2022-09-28T00:23:42.193Z,9.678123
2022-09-28T00:24:42.180Z,9.678079
2022-09-28T00:25:42.180Z,9.678080
2022-09-28T00:26:42.182Z,9.678077
2022-09-28T00:27:42.177Z,9.678094
2022-09-28T00:28:42.150Z,9.678097
2022-09-28T00:29:42.144Z,9.678133
2022-09-28T00:30:42.128Z,9.678082
2022-09-28T00:31:42.190Z,9.678005
2022-09-28T00:32:42.104Z,9.678129
2022-09-28T00:33:42.107Z,9.678146
2022-09-28T00:34:42.100Z,9.678119
2022-09-28T00:35:42.085Z,9.678086
2022-09-28T00:36:42.079Z,9.678122
2022-09-28T00:37:42.083Z,9.678144
2022-09-28T00:38:42.050Z,9.678162
2022-09-28T00:39:42.061Z,9.678142
2022-09-28T00:40:42.074Z,9.678156
2022-09-28T00:41:42.054Z,9.678126
2022-09-28T00:42:42.044Z,9.678103
2022-09-28T00:43:42.012Z,9.678113
2022-09-28T00:44:42.006Z,9.678065
2022-09-28T00:45:42.049Z,9.678086
2022-09-28T00:46:42.021Z,9.678093
2022-09-28T00:47:42.783Z,9.678133
2022-09-28T00:48:41.975Z,9.678124
2022-09-28T00:49:41.984Z,9.678100
2022-09-28T00:50:41.951Z,9.678153
2022-09-28T00:51:41.949Z,9.678068
2022-09-28T00:52:41.932Z,9.678105
2022-09-28T00:53:41.918Z,9.678130
2022-09-28T00:54:41.919Z,9.678103
2022-09-28T00:55:41.932Z,9.678117
2022-09-28T00:56:41.892Z,9.678134
2022-09-28T00:57:41.887Z,9.678127
2022-09-28T00:58:41.879Z,9.678146
2022-09-28T00:59:41.867Z,9.678106
2022-09-28T01:00:41.955Z,9.678129
2022-09-28T01:01:41.897Z,9.678154
2022-09-28T01:02:41.902Z,9.678123
2022-09-28T01:03:41.854Z,9.678091
2022-09-28T01:04:41.820Z,9.678099
2022-09-28T01:05:41.833Z,9.678147
2022-09-28T01:06:41.803Z,9.678119
2022-09-28T01:07:41.807Z,9.678101
2022-09-28T01:08:41.801Z,9.678164
2022-09-28T01:09:41.816Z,9.678152
2022-09-28T01:10:41.767Z,9.678190
2022-09-28T01:11:41.761Z,9.678112
2022-09-28T01:12:41.829Z,9.678112
2022-09-28T01:13:41.745Z,9.678123
2022-09-28T01:14:41.727Z,9.678144
2022-09-28T01:15:41.758Z,9.678120
2022-09-28T01:16:41.758Z,9.678171
2022-09-28T01:17:41.715Z,9.678163
2022-09-28T01:18:41.709Z,9.678140
2022-09-28T01:19:41.704Z,9.678140
2022-09-28T01:20:42.273Z,9.678123
2022-09-28T01:21:41.728Z,9.678197
2022-09-28T01:22:41.664Z,9.678247
2022-09-28T01:23:41.660Z,9.678211
2022-09-28T01:24:41.658Z,9.678185
2022-09-28T01:25:41.636Z,9.678136
2022-09-28T01:26:41.661Z,9.678101
2022-09-28T01:27:41.612Z,9.678126
2022-09-28T01:28:41.610Z,9.678152
2022-09-28T01:29:41.618Z,9.678152
2022-09-28T01:30:41.598Z,9.678144
2022-09-28T01:31:41.638Z,9.678171
2022-09-28T01:32:41.596Z,9.678186
2022-09-28T01:33:41.576Z,9.678184
2022-09-28T01:34:41.562Z,9.678138
2022-09-28T01:35:41.555Z,9.678115
2022-09-28T01:36:41.554Z,9.678204
2022-09-28T01:37:41.549Z,9.678134
2022-09-28T01:38:41.545Z,9.678098
2022-09-28T01:39:41.527Z,9.678093
2022-09-28T01:40:49.054Z,9.678137
2022-09-28T01:41:41.496Z,9.678110
2022-09-28T01:42:41.504Z,9.678136
2022-09-28T01:43:41.484Z,9.678098
2022-09-28T01:44:41.469Z,9.678120
2022-09-28T01:45:41.495Z,9.678131
2022-09-28T01:46:41.457Z,9.678162
2022-09-28T01:47:41.484Z,9.678144
2022-09-28T01:48:41.463Z,9.678127
2022-09-28T01:49:41.441Z,9.678194
2022-09-28T01:50:41.416Z,9.678129
2022-09-28T01:51:41.418Z,9.678155
2022-09-28T01:52:41.586Z,9.678115
2022-09-28T01:53:41.458Z,9.678111
2022-09-28T01:54:41.391Z,9.678100
2022-09-28T01:55:41.379Z,9.678112
2022-09-28T01:56:41.407Z,9.678152
2022-09-28T01:57:41.391Z,9.678180
2022-09-28T01:58:41.350Z,9.678133
2022-09-28T01:59:41.387Z,9.678148
2022-09-28T02:00:41.413Z,9.678175
2022-09-28T02:01:41.405Z,9.678119
2022-09-28T02:02:41.317Z,9.678091
2022-09-28T02:03:41.311Z,9.678170
2022-09-28T02:04:41.324Z,9.678239
2022-09-28T02:05:41.295Z,9.678084
2022-09-28T02:06:41.308Z,9.678082
2022-09-28T02:07:41.280Z,9.678100
2022-09-28T02:08:41.265Z,9.678145
2022-09-28T02:09:41.255Z,9.678136
2022-09-28T02:10:41.364Z,9.678173
2022-09-28T02:11:41.248Z,9.678217
2022-09-28T02:12:41.240Z,9.678225
2022-09-28T02:13:41.224Z,9.678213
2022-09-28T02:14:41.213Z,9.678191
2022-09-28T02:15:41.242Z,9.678128
2022-09-28T02:16:41.277Z,9.678164
2022-09-28T02:17:41.238Z,9.678171
2022-09-28T02:18:41.177Z,9.678185
2022-09-28T02:19:41.172Z,9.678144
2022-09-28T02:20:41.158Z,9.678086
2022-09-28T02:21:41.151Z,9.678087
2022-09-28T02:22:41.130Z,9.678078
2022-09-28T02:23:41.151Z,9.678161
2022-09-28T02:24:41.115Z,9.678146
2022-09-28T02:25:41.154Z,9.678147
2022-09-28T02:26:41.100Z,9.678110
2022-09-28T02:27:41.103Z,9.678086
2022-09-28T02:28:41.087Z,9.678053
2022-09-28T02:29:41.090Z,9.678058
2022-09-28T02:30:41.075Z,9.678118
2022-09-28T02:31:41.116Z,9.678146
2022-09-28T02:32:41.052Z,9.678101
2022-09-28T02:33:41.045Z,9.678116
2022-09-28T02:34:41.031Z,9.678110
2022-09-28T02:35:41.053Z,9.678121
2022-09-28T02:36:41.039Z,9.678121
2022-09-28T02:37:41.000Z,9.678110
2022-09-28T02:38:40.986Z,9.678145
2022-09-28T02:39:40.991Z,9.678107
2022-09-28T02:40:41.029Z,9.678090
2022-09-28T02:41:40.967Z,9.678081
2022-09-28T02:42:40.978Z,9.678077
2022-09-28T02:43:40.956Z,9.678083
2022-09-28T02:44:40.948Z,9.678099
2022-09-28T02:45:40.968Z,9.678070
2022-09-28T02:46:40.935Z,9.678066
2022-09-28T02:47:40.940Z,9.678084
2022-09-28T02:48:43.962Z,9.678076
2022-09-28T02:49:40.901Z,9.678077
2022-09-28T02:50:40.899Z,9.678104
2022-09-28T02:51:40.894Z,9.678027
2022-09-28T02:52:40.898Z,9.678092
2022-09-28T02:53:40.884Z,9.678083
2022-09-28T02:54:40.863Z,9.678105
2022-09-28T02:55:40.850Z,9.678078
2022-09-28T02:56:40.835Z,9.678117
2022-09-28T02:57:40.837Z,9.678136
2022-09-28T02:58:40.821Z,9.678121
2022-09-28T02:59:40.837Z,9.678107
2022-09-28T03:00:40.854Z,9.678127
2022-09-28T03:01:40.860Z,9.678117
2022-09-28T03:02:40.777Z,9.678102
2022-09-28T03:03:40.790Z,9.678134
2022-09-28T03:04:40.779Z,9.678098
2022-09-28T03:05:40.747Z,9.678058
2022-09-28T03:06:40.741Z,9.678065
2022-09-28T03:07:40.741Z,9.678109
2022-09-28T03:08:40.748Z,9.678074
2022-09-28T03:09:40.721Z,9.678077
2022-09-28T03:10:40.705Z,9.678114
2022-09-28T03:11:40.710Z,9.678068
2022-09-28T03:12:40.684Z,9.678046
2022-09-28T03:13:40.691Z,9.678054
2022-09-28T03:14:40.715Z,9.678065
2022-09-28T03:15:41.949Z,9.678062
2022-09-28T03:16:40.741Z,9.678072
2022-09-28T03:17:40.640Z,9.678093
2022-09-28T03:18:40.641Z,9.678117
2022-09-28T03:19:40.627Z,9.678103
2022-09-28T03:20:40.637Z,9.678061
2022-09-28T03:21:40.604Z,9.678073
2022-09-28T03:22:40.602Z,9.678092
2022-09-28T03:23:40.597Z,9.678063
2022-09-28T03:24:40.586Z,9.678061
2022-09-28T03:25:40.583Z,9.678049
2022-09-28T03:26:40.594Z,9.678042
2022-09-28T03:27:40.582Z,9.678118
2022-09-28T03:28:40.566Z,9.678085
2022-09-28T03:29:40.556Z,9.678070
2022-09-28T03:30:40.539Z,9.678077
2022-09-28T03:31:40.542Z,9.678109
2022-09-28T03:32:40.537Z,9.678080
2022-09-28T03:33:40.511Z,9.678094
2022-09-28T03:34:40.495Z,9.678060
2022-09-28T03:35:40.490Z,9.678030
2022-09-28T03:36:40.472Z,9.678102
2022-09-28T03:37:40.532Z,9.678082
2022-09-28T03:38:40.476Z,9.678019
2022-09-28T03:39:40.460Z,9.678088
2022-09-28T03:40:40.507Z,9.678040
2022-09-28T03:41:40.451Z,9.678061
2022-09-28T03:42:40.437Z,9.678011
2022-09-28T03:43:40.450Z,9.678063
2022-09-28T03:44:40.413Z,9.678040
2022-09-28T03:45:40.476Z,9.678123
2022-09-28T03:46:40.403Z,9.678125
2022-09-28T03:47:40.388Z,9.678105
2022-09-28T03:48:40.401Z,9.678074
2022-09-28T03:49:40.401Z,9.678098
2022-09-28T03:50:40.369Z,9.678092
2022-09-28T03:51:40.399Z,9.678097
2022-09-28T03:52:40.347Z,9.678117
2022-09-28T03:53:40.357Z,9.678054
2022-09-28T03:54:40.349Z,9.678113
2022-09-28T03:55:40.333Z,9.678072
2022-09-28T03:56:40.313Z,9.678054
2022-09-28T03:57:40.335Z,9.678089
2022-09-28T03:58:40.304Z,9.678091
2022-09-28T03:59:40.319Z,9.678134
2022-09-28T04:00:40.354Z,9.678092
2022-09-28T04:01:40.421Z,9.678102
2022-09-28T04:02:40.271Z,9.678087
2022-09-28T04:03:40.254Z,9.678072
2022-09-28T04:04:40.254Z,9.678065
2022-09-28T04:05:40.249Z,9.678069
2022-09-28T04:06:40.239Z,9.678078
2022-09-28T04:07:40.248Z,9.678026
2022-09-28T04:08:40.220Z,9.678047
2022-09-28T04:09:40.206Z,9.678026
2022-09-28T04:10:40.201Z,9.678039
2022-09-28T04:11:59.721Z,9.678023
2022-09-28T04:12:41.225Z,9.678030
2022-09-28T04:13:40.213Z,9.678085
2022-09-28T04:14:40.181Z,9.678062
2022-09-28T04:15:40.176Z,9.678082
2022-09-28T04:16:40.203Z,9.678089
2022-09-28T04:17:40.417Z,9.678042
2022-09-28T04:18:40.164Z,9.678032
2022-09-28T04:19:40.143Z,9.678046
2022-09-28T04:20:40.115Z,9.678077
2022-09-28T04:21:40.151Z,9.678047
2022-09-28T04:22:40.112Z,9.678087
2022-09-28T04:23:40.086Z,9.678072
2022-09-28T04:24:40.101Z,9.678075
2022-09-28T04:25:40.068Z,9.678087
2022-09-28T04:26:40.073Z,9.678082
2022-09-28T04:27:40.071Z,9.678014
2022-09-28T04:28:40.066Z,9.678048
2022-09-28T04:29:40.048Z,9.678127
2022-09-28T04:30:40.056Z,9.678067
2022-09-28T04:31:40.072Z,9.678097
2022-09-28T04:32:40.044Z,9.678086
2022-09-28T04:33:40.005Z,9.678049
2022-09-28T04:34:43.870Z,9.678077
2022-09-28T04:35:40.003Z,9.678042
2022-09-28T04:36:39.997Z,9.678090
2022-09-28T04:37:39.971Z,9.678101
2022-09-28T04:38:52.868Z,9.678082
2022-09-28T04:39:43.954Z,9.678092
2022-09-28T04:40:40.988Z,9.678053
2022-09-28T04:41:39.957Z,9.678023
2022-09-28T04:42:39.962Z,9.678033
2022-09-28T04:43:39.923Z,9.678050
2022-09-28T04:44:39.953Z,9.678061
2022-09-28T04:45:39.982Z,9.678015
2022-09-28T04:46:39.934Z,9.678092
2022-09-28T04:47:39.909Z,9.678088
2022-09-28T04:48:39.883Z,9.678091
2022-09-28T04:49:39.931Z,9.678057
2022-09-28T04:50:39.861Z,9.678049
2022-09-28T04:51:39.859Z,9.678058
2022-09-28T04:52:39.837Z,9.678040
2022-09-28T04:53:39.830Z,9.678065
2022-09-28T04:54:39.848Z,9.678050
2022-09-28T04:55:39.816Z,9.678041
2022-09-28T04:56:39.820Z,9.678049
2022-09-28T04:57:39.802Z,9.678034
2022-09-28T04:58:39.815Z,9.678039
2022-09-28T04:59:39.948Z,9.678021
2022-09-28T05:00:39.776Z,9.678041
2022-09-28T05:01:39.817Z,9.678025
2022-09-28T05:02:39.810Z,9.678029
2022-09-28T05:03:39.773Z,9.678043
2022-09-28T05:04:39.847Z,9.678050
2022-09-28T05:05:39.825Z,9.678080
2022-09-28T05:06:39.715Z,9.678055
2022-09-28T05:07:39.776Z,9.678041
2022-09-28T05:08:39.703Z,9.678050
2022-09-28T05:09:39.703Z,9.678083
2022-09-28T05:10:39.699Z,9.678135
2022-09-28T05:11:39.748Z,9.678096
2022-09-28T05:12:39.682Z,9.678089
2022-09-28T05:13:39.665Z,9.678069
2022-09-28T05:14:39.655Z,9.678056
2022-09-28T05:15:39.654Z,9.678083
2022-09-28T05:16:39.709Z,9.678044
2022-09-28T05:17:39.659Z,9.678015
2022-09-28T05:18:39.618Z,9.678003
2022-09-28T05:19:39.618Z,9.678082
2022-09-28T05:20:39.600Z,9.678061
2022-09-28T05:21:39.820Z,9.678078
2022-09-28T05:22:39.634Z,9.678071
2022-09-28T05:23:39.579Z,9.678034
2022-09-28T05:24:39.577Z,9.678079
2022-09-28T05:25:39.572Z,9.678086
2022-09-28T05:26:39.568Z,9.678059
2022-09-28T05:27:39.540Z,9.678069
2022-09-28T05:28:39.559Z,9.678093
2022-09-28T05:29:39.543Z,9.678073
2022-09-28T05:30:39.533Z,9.678075
2022-09-28T05:31:39.553Z,9.678093
2022-09-28T05:32:39.503Z,9.678077
2022-09-28T05:33:39.597Z,9.678065
2022-09-28T05:34:39.518Z,9.678041
2022-09-28T05:35:39.519Z,9.678085
2022-09-28T05:36:39.462Z,9.678041
2022-09-28T05:37:39.463Z,9.678030
2022-09-28T05:38:39.459Z,9.678071
2022-09-28T05:39:39.447Z,9.678102
2022-09-28T05:40:43.329Z,9.678083
2022-09-28T05:41:39.459Z,9.678117
2022-09-28T05:42:39.582Z,9.678065
2022-09-28T05:43:39.413Z,9.678082
2022-09-28T05:44:39.415Z,9.678081
2022-09-28T05:45:39.506Z,9.678072
2022-09-28T05:46:39.411Z,9.678095
2022-09-28T05:47:39.380Z,9.678060
2022-09-28T05:48:39.390Z,9.678108
2022-09-28T05:49:39.353Z,9.678020
2022-09-28T05:50:39.452Z,9.678044
2022-09-28T05:51:39.391Z,9.678092
2022-09-28T05:52:39.337Z,9.678065
2022-09-28T05:53:39.329Z,9.678039
2022-09-28T05:54:39.327Z,9.677948
2022-09-28T05:55:39.385Z,9.678026
2022-09-28T05:56:40.553Z,9.678075
2022-09-28T05:57:39.310Z,9.678064
2022-09-28T05:58:39.314Z,9.678043
2022-09-28T05:59:39.750Z,9.678069
2022-09-28T06:00:39.271Z,9.678098
2022-09-28T06:01:39.296Z,9.678041
2022-09-28T06:02:39.321Z,9.678067
2022-09-28T06:03:39.260Z,9.678090
2022-09-28T06:04:39.252Z,9.678054
2022-09-28T06:05:39.243Z,9.678104
2022-09-28T06:06:39.216Z,9.678073
2022-09-28T06:07:39.212Z,9.678081
2022-09-28T06:08:39.229Z,9.678074
2022-09-28T06:09:39.196Z,9.678160
2022-09-28T06:10:39.185Z,9.678107
2022-09-28T06:11:39.196Z,9.678098
2022-09-28T06:12:39.179Z,9.678046
2022-09-28T06:13:39.191Z,9.678133
2022-09-28T06:14:39.378Z,9.678139
2022-09-28T06:15:39.201Z,9.678109
2022-09-28T06:16:43.102Z,9.678105
2022-09-28T06:17:39.826Z,9.678104
2022-09-28T06:18:39.117Z,9.677991
2022-09-28T06:19:39.140Z,9.678089
2022-09-28T06:20:39.110Z,9.678156
2022-09-28T06:21:39.088Z,9.678049
2022-09-28T06:22:39.094Z,9.678131
2022-09-28T06:23:40.522Z,9.678115
2022-09-28T06:24:39.076Z,9.678116
2022-09-28T06:25:39.082Z,9.678072
2022-09-28T06:26:39.052Z,9.678034
2022-09-28T06:27:39.042Z,9.678081
2022-09-28T06:28:39.034Z,9.678068
2022-09-28T06:29:39.022Z,9.678067
2022-09-28T06:30:39.165Z,9.678046
2022-09-28T06:31:39.033Z,9.678064
2022-09-28T06:32:38.994Z,9.678036
2022-09-28T06:33:39.007Z,9.678072
2022-09-28T06:34:38.995Z,9.678046
2022-09-28T06:35:39.000Z,9.678012
2022-09-28T06:36:38.974Z,9.678105
2022-09-28T06:37:38.966Z,9.678014
2022-09-28T06:38:38.963Z,9.678031
2022-09-28T06:39:38.938Z,9.678050
2022-09-28T06:40:39.025Z,9.678077
2022-09-28T06:41:39.011Z,9.678074
2022-09-28T06:42:38.914Z,9.678072
2022-09-28T06:43:38.988Z,9.678045
2022-09-28T06:44:38.903Z,9.678074
2022-09-28T06:45:38.896Z,9.678108
2022-09-28T06:46:38.960Z,9.678033
2022-09-28T06:47:38.898Z,9.678103
2022-09-28T06:48:38.870Z,9.678122
2022-09-28T06:49:38.871Z,9.678116
2022-09-28T06:50:38.855Z,9.678123
2022-09-28T06:51:38.859Z,9.678049
2022-09-28T06:52:38.866Z,9.678116
2022-09-28T06:53:38.820Z,9.678122
2022-09-28T06:54:38.832Z,9.678063
2022-09-28T06:55:38.828Z,9.678090
2022-09-28T06:56:38.806Z,9.678116
2022-09-28T06:57:38.788Z,9.678125
2022-09-28T06:58:38.799Z,9.678102
2022-09-28T06:59:38.766Z,9.678099
2022-09-28T07:00:38.764Z,9.678144
2022-09-28T07:01:38.901Z,9.678078
2022-09-28T07:02:38.837Z,9.678112
2022-09-28T07:03:38.768Z,9.678072
2022-09-28T07:04:38.723Z,9.678102
2022-09-28T07:05:38.764Z,9.678124
2022-09-28T07:06:38.732Z,9.678118
2022-09-28T07:07:38.772Z,9.678152
2022-09-28T07:08:38.729Z,9.678170
2022-09-28T07:09:43.713Z,9.678116
2022-09-28T07:10:39.690Z,9.678082
2022-09-28T07:11:38.678Z,9.678100
2022-09-28T07:12:38.673Z,9.678090
2022-09-28T07:16:05.653Z,9.678085
2022-09-28T07:17:13.630Z,9.678119
2022-09-28T07:18:06.698Z,9.678126
2022-09-28T07:19:05.623Z,9.678079
2022-09-28T07:20:16.236Z,9.678094
2022-09-28T07:21:06.806Z,9.678111
2022-09-28T07:22:05.817Z,9.678111
2022-09-28T07:23:17.339Z,9.678060
2022-09-28T07:24:06.627Z,9.678076
2022-09-28T07:25:05.574Z,9.678107
2022-09-28T07:26:08.128Z,9.678087
2022-09-28T07:27:05.569Z,9.678092
2022-09-28T07:28:05.554Z,9.678049
2022-09-28T07:29:05.555Z,9.678090
2022-09-28T07:30:05.543Z,9.678125
2022-09-28T07:31:05.579Z,9.678146
2022-09-28T07:32:05.553Z,9.678116
2022-09-28T07:33:05.572Z,9.678064
2022-09-28T07:34:05.517Z,9.678061
2022-09-28T07:35:05.542Z,9.678057
2022-09-28T07:36:05.536Z,9.678078
2022-09-28T07:40:59.749Z,9.678100
2022-09-28T07:42:02.630Z,9.678109
2022-09-28T07:42:59.513Z,9.678118
2022-09-28T07:43:59.505Z,9.678123
2022-09-28T07:44:59.498Z,9.678144
2022-09-28T07:45:59.582Z,9.678117
2022-09-28T07:46:59.482Z,9.678121
2022-09-28T07:47:59.499Z,9.678154
2022-09-28T07:48:59.460Z,9.678127
2022-09-28T07:49:59.450Z,9.678142
2022-09-28T07:50:59.448Z,9.678102
2022-09-28T07:51:59.559Z,9.678129
2022-09-28T07:52:59.425Z,9.678122
2022-09-28T07:53:59.436Z,9.678112
2022-09-28T07:55:03.362Z,9.678152
2022-09-28T07:56:00.410Z,9.678157
2022-09-28T07:56:59.439Z,9.678086
2022-09-28T07:57:59.442Z,9.678077
2022-09-28T07:58:59.403Z,9.678072
2022-09-28T07:59:59.398Z,9.678134
2022-09-28T08:00:59.418Z,9.678163
2022-09-28T08:01:59.415Z,9.678180
2022-09-28T08:02:59.344Z,9.678138
2022-09-28T08:03:59.367Z,9.678108
2022-09-28T08:04:59.326Z,9.678113
2022-09-28T08:05:59.326Z,9.678190
2022-09-28T08:06:59.352Z,9.678180
2022-09-28T08:07:59.307Z,9.678173
2022-09-28T08:08:59.312Z,9.678204
2022-09-28T08:09:59.315Z,9.678210
2022-09-28T08:10:59.301Z,9.678162
2022-09-28T08:11:59.273Z,9.678135
2022-09-28T08:13:02.090Z,9.678124
2022-09-28T08:13:59.269Z,9.678181
2022-09-28T08:14:59.241Z,9.678244
2022-09-28T08:15:59.250Z,9.678234
2022-09-28T08:16:59.217Z,9.678150
2022-09-28T08:18:02.616Z,9.678130
2022-09-28T08:18:59.248Z,9.678184
2022-09-28T08:19:59.195Z,9.678153
2022-09-28T08:20:59.213Z,9.678147
2022-09-28T08:21:59.251Z,9.678163
2022-09-28T08:22:59.177Z,9.678108
2022-09-28T08:23:59.173Z,9.678182
2022-09-28T08:24:59.165Z,9.678230
2022-09-28T08:25:59.174Z,9.678183
2022-09-28T08:26:59.207Z,9.678123
2022-09-28T08:27:59.138Z,9.678119
2022-09-28T08:28:59.156Z,9.678101
2022-09-28T08:29:59.120Z,9.678108
2022-09-28T08:30:59.160Z,9.678162
2022-09-28T08:32:01.558Z,9.678176
2022-09-28T08:32:59.102Z,9.678113
2022-09-28T08:33:59.124Z,9.678128
2022-09-28T08:34:59.084Z,9.678128
2022-09-28T08:35:59.090Z,9.678160
2022-09-28T08:36:59.062Z,9.678148
2022-09-28T08:37:59.063Z,9.678131
2022-09-28T08:38:59.041Z,9.678117
2022-09-28T08:39:59.063Z,9.678134
2022-09-28T08:40:59.123Z,9.678115
2022-09-28T08:41:59.026Z,9.678159
2022-09-28T08:42:59.026Z,9.678146
2022-09-28T08:43:59.004Z,9.678172
2022-09-28T08:44:59.016Z,9.678155
2022-09-28T08:45:59.087Z,9.678134
2022-09-28T08:46:58.986Z,9.678173
2022-09-28T08:47:58.977Z,9.678144
2022-09-28T08:49:20.437Z,9.678149
2022-09-28T08:50:00.255Z,9.678122
2022-09-28T08:50:58.951Z,9.678136
2022-09-28T08:51:58.959Z,9.678133
2022-09-28T08:52:58.930Z,9.678156
2022-09-28T08:53:58.933Z,9.678140
2022-09-28T08:54:58.908Z,9.678101
2022-09-28T08:55:58.933Z,9.678114
2022-09-28T08:56:58.889Z,9.678148
2022-09-28T08:57:58.899Z,9.678117
2022-09-28T08:58:58.870Z,9.678117
2022-09-28T08:59:58.866Z,9.678124
2022-09-28T09:00:58.888Z,9.678139
2022-09-28T09:01:59.017Z,9.678145
2022-09-28T09:02:58.874Z,9.678111
2022-09-28T09:03:58.878Z,9.678107
2022-09-28T09:04:58.825Z,9.678130
2022-09-28T09:05:58.824Z,9.678131
2022-09-28T09:06:58.806Z,9.678108
2022-09-28T09:07:58.795Z,9.678107
2022-09-28T09:08:58.790Z,9.678120
2022-09-28T09:09:58.799Z,9.678115
2022-09-28T09:10:58.792Z,9.678162
2022-09-28T09:11:58.778Z,9.678136
2022-09-28T09:12:58.799Z,9.678120
2022-09-28T09:13:58.737Z,9.678125
2022-09-28T09:14:58.749Z,9.678101
2022-09-28T09:15:58.725Z,9.678102
2022-09-28T09:17:00.521Z,9.678123
2022-09-28T09:17:58.709Z,9.678114
2022-09-28T09:18:58.704Z,9.678113
2022-09-28T09:19:58.727Z,9.678103
2022-09-28T09:20:58.696Z,9.678124
2022-09-28T09:21:58.694Z,9.678187
2022-09-28T09:22:58.696Z,9.678190
2022-09-28T09:23:58.661Z,9.678141
2022-09-28T09:24:58.669Z,9.678172
2022-09-28T09:25:58.668Z,9.678166
2022-09-28T09:26:58.633Z,9.678138
2022-09-28T09:27:58.637Z,9.678152
2022-09-28T09:28:58.653Z,9.678177
2022-09-28T09:29:58.609Z,9.678188
2022-09-28T09:30:58.635Z,9.678098
2022-09-28T09:31:58.628Z,9.678098
2022-09-28T09:32:58.599Z,9.678119
2022-09-28T09:33:58.613Z,9.678089
2022-09-28T09:34:58.564Z,9.678166
2022-09-28T09:35:58.570Z,9.678171
2022-09-28T09:36:58.546Z,9.678153
2022-09-28T09:37:58.799Z,9.678121
2022-09-28T09:38:58.542Z,9.678125
2022-09-28T09:39:58.526Z,9.678123
2022-09-28T09:40:58.589Z,9.678118
2022-09-28T09:41:58.507Z,9.678148
2022-09-28T09:42:58.529Z,9.678144
2022-09-28T09:43:58.517Z,9.678054
2022-09-28T09:44:58.490Z,9.678122
2022-09-28T09:45:58.535Z,9.678145
2022-09-28T09:46:58.477Z,9.678171
2022-09-28T09:47:58.471Z,9.678177
2022-09-28T09:48:58.454Z,9.678175
2022-09-28T09:49:58.447Z,9.678204
2022-09-28T09:50:58.430Z,9.678174
2022-09-28T09:51:58.461Z,9.678153
2022-09-28T09:52:58.406Z,9.678167
2022-09-28T09:53:58.407Z,9.678146
2022-09-28T09:54:58.393Z,9.678121
2022-09-28T09:55:58.384Z,9.678142
2022-09-28T09:56:58.395Z,9.678140
2022-09-28T09:57:58.386Z,9.678185
2022-09-28T09:58:58.377Z,9.678174
2022-09-28T09:59:58.355Z,9.678169
2022-09-28T10:00:58.403Z,9.678162
2022-09-28T10:01:58.374Z,9.678185
2022-09-28T10:02:58.423Z,9.678179
2022-09-28T10:03:58.338Z,9.678223
2022-09-28T10:04:58.371Z,9.678197
2022-09-28T10:05:58.318Z,9.678120
2022-09-28T10:06:58.298Z,9.678147
2022-09-28T10:07:58.348Z,9.678134
2022-09-28T10:08:58.282Z,9.678198
2022-09-28T10:09:58.283Z,9.678186
2022-09-28T10:10:58.288Z,9.678131
2022-09-28T10:11:58.255Z,9.678085
2022-09-28T10:12:58.248Z,9.678173
2022-09-28T10:13:58.248Z,9.678183
2022-09-28T10:14:58.237Z,9.678225
2022-09-28T10:15:58.279Z,9.678218
2022-09-28T10:16:58.361Z,9.678150
2022-09-28T10:17:58.293Z,9.678197
2022-09-28T10:18:58.206Z,9.678201
2022-09-28T10:19:58.193Z,9.678184
2022-09-28T10:20:58.199Z,9.678146
2022-09-28T10:21:58.207Z,9.678176
2022-09-28T10:22:58.175Z,9.678170
2022-09-28T10:23:58.188Z,9.678157
2022-09-28T10:24:58.141Z,9.678152
2022-09-28T10:25:58.229Z,9.678178
2022-09-28T10:26:58.129Z,9.678131
2022-09-28T10:27:58.150Z,9.678131
2022-09-28T10:28:58.118Z,9.678161
2022-09-28T10:29:58.115Z,9.678171
2022-09-28T10:30:58.235Z,9.678164
2022-09-28T10:31:58.236Z,9.678147
2022-09-28T10:32:59.310Z,9.678115
2022-09-28T10:33:58.210Z,9.678154
2022-09-28T10:34:58.205Z,9.678104
2022-09-28T10:35:58.042Z,9.678133
2022-09-28T10:36:58.050Z,9.678167
2022-09-28T10:37:58.027Z,9.678195
2022-09-28T10:38:58.054Z,9.678168
2022-09-28T10:39:58.020Z,9.678135
2022-09-28T10:40:58.125Z,9.678169
2022-09-28T10:41:58.013Z,9.678185
2022-09-28T10:42:57.986Z,9.678191
2022-09-28T10:43:58.231Z,9.678173
2022-09-28T10:44:58.001Z,9.678171
2022-09-28T10:45:57.989Z,9.678196
2022-09-28T10:46:57.954Z,9.678175
2022-09-28T10:47:57.946Z,9.678150
2022-09-28T10:48:57.940Z,9.678126
2022-09-28T10:49:58.007Z,9.678136
2022-09-28T10:50:57.925Z,9.678165
2022-09-28T10:51:57.950Z,9.678146
2022-09-28T10:52:57.903Z,9.678159
2022-09-28T10:53:57.903Z,9.678220
2022-09-28T10:54:57.898Z,9.678179
2022-09-28T10:55:57.904Z,9.678190
2022-09-28T10:56:57.904Z,9.678142
2022-09-28T10:57:57.881Z,9.678134
2022-09-28T10:58:57.860Z,9.678135
2022-09-28T10:59:57.846Z,9.678154
2022-09-28T11:00:57.869Z,9.678174
2022-09-28T11:01:57.836Z,9.678159
2022-09-28T11:02:57.872Z,9.678144
2022-09-28T11:03:57.809Z,9.678145
2022-09-28T11:04:57.795Z,9.678171
2022-09-28T11:05:57.809Z,9.678131
2022-09-28T11:06:57.833Z,9.678119
2022-09-28T11:07:57.772Z,9.678138
2022-09-28T11:08:57.778Z,9.678134
2022-09-28T11:09:57.774Z,9.678148
2022-09-28T11:10:57.756Z,9.678164
2022-09-28T11:11:57.750Z,9.678161
2022-09-28T11:12:57.757Z,9.678181
2022-09-28T11:13:57.740Z,9.678200
2022-09-28T11:14:57.738Z,9.678213
2022-09-28T11:15:57.704Z,9.678181
2022-09-28T11:16:57.745Z,9.678211
2022-09-28T11:17:57.722Z,9.678245
2022-09-28T11:18:57.682Z,9.678204
2022-09-28T11:19:57.698Z,9.678178
2022-09-28T11:20:57.670Z,9.678225
2022-09-28T11:21:57.675Z,9.678193
2022-09-28T11:22:57.675Z,9.678163
2022-09-28T11:23:57.649Z,9.678217
2022-09-28T11:24:57.640Z,9.678203
2022-09-28T11:25:57.671Z,9.678196
2022-09-28T11:26:57.624Z,9.678202
2022-09-28T11:27:57.674Z,9.678189
2022-09-28T11:28:57.598Z,9.678208
2022-09-28T11:29:57.593Z,9.678164
2022-09-28T11:30:57.746Z,9.678206
2022-09-28T11:31:57.572Z,9.678206
2022-09-28T11:32:57.627Z,9.678185
2022-09-28T11:33:57.923Z,9.678208
2022-09-28T11:35:00.069Z,9.678186
2022-09-28T11:35:57.541Z,9.678186
2022-09-28T11:37:01.504Z,9.678220
2022-09-28T11:37:57.530Z,9.678200
2022-09-28T11:38:58.883Z,9.678199
2022-09-28T11:39:57.539Z,9.678206
2022-09-28T11:40:57.670Z,9.678198
2022-09-28T11:41:57.704Z,9.678192
2022-09-28T11:42:58.018Z,9.678177
2022-09-28T11:43:57.458Z,9.678199
2022-09-28T11:44:58.147Z,9.678254
2022-09-28T11:45:57.501Z,9.678282
2022-09-28T11:46:57.685Z,9.678234
2022-09-28T11:47:57.427Z,9.678205
2022-09-28T11:48:57.424Z,9.678196
2022-09-28T11:49:57.936Z,9.678193
2022-09-28T11:50:57.405Z,9.678220